sensor_id;sensor_type;location;lat;lon;timestamp;temperature;humidity
5578;DHT22;2811;51.900;10.734;2024-02-23T00:00:45;10.70;99.90
5578;DHT22;2811;51.900;10.734;2024-02-23T00:03:11;10.20;99.90
5578;DHT22;2811;51.900;10.734;2024-02-23T00:05:38;10.10;99.90
5578;DHT22;2811;51.900;10.734;2024-02-23T00:08:06;10.10;99.90
5578;DHT22;2811;51.900;10.734;2024-02-23T00:10:34;10.10;99.90
5578;DHT22;2811;51.900;10.734;2024-02-23T00:13:02;10.10;99.90
5578;DHT22;2811;51.900;10.734;2024-02-23T00:15:29;10.10;99.90
5578;DHT22;2811;51.900;10.734;2024-02-23T00:17:55;10.10;99.90
5578;DHT22;2811;51.900;10.734;2024-02-23T00:20:22;10.10;99.90
5578;DHT22;2811;51.900;10.734;2024-02-23T00:22:49;10.00;99.90
5578;DHT22;2811;51.900;10.734;2024-02-23T00:25:17;10.00;99.90
5578;DHT22;2811;51.900;10.734;2024-02-23T00:27:44;10.00;99.90
5578;DHT22;2811;51.900;10.734;2024-02-23T00:30:13;10.00;99.90
5578;DHT22;2811;51.900;10.734;2024-02-23T00:32:40;9.80;99.90
5578;DHT22;2811;51.900;10.734;2024-02-23T00:35:07;9.80;99.90
5578;DHT22;2811;51.900;10.734;2024-02-23T00:37:34;9.80;99.90
5578;DHT22;2811;51.900;10.734;2024-02-23T00:40:01;9.70;99.90
5578;DHT22;2811;51.900;10.734;2024-02-23T00:42:30;9.70;99.90
5578;DHT22;2811;51.900;10.734;2024-02-23T00:44:57;9.70;99.90
5578;DHT22;2811;51.900;10.734;2024-02-23T00:47:24;9.60;99.90
5578;DHT22;2811;51.900;10.734;2024-02-23T00:49:50;9.50;99.90
5578;DHT22;2811;51.900;10.734;2024-02-23T00:52:17;9.60;99.90
5578;DHT22;2811;51.900;10.734;2024-02-23T00:54:44;9.60;99.90
5578;DHT22;2811;51.900;10.734;2024-02-23T00:57:10;9.50;99.90
5578;DHT22;2811;51.900;10.734;2024-02-23T00:59:38;9.70;99.90
5578;DHT22;2811;51.900;10.734;2024-02-23T01:02:05;9.70;99.90
5578;DHT22;2811;51.900;10.734;2024-02-23T01:04:32;9.60;99.90
5578;DHT22;2811;51.900;10.734;2024-02-23T01:06:58;9.60;99.90
5578;DHT22;2811;51.900;10.734;2024-02-23T01:09:26;9.60;99.90
5578;DHT22;2811;51.900;10.734;2024-02-23T01:11:52;9.60;99.90
5578;DHT22;2811;51.900;10.734;2024-02-23T01:14:19;9.60;99.90
5578;DHT22;2811;51.900;10.734;2024-02-23T01:16:47;9.60;99.90
5578;DHT22;2811;51.900;10.734;2024-02-23T01:19:14;9.60;99.90
5578;DHT22;2811;51.900;10.734;2024-02-23T01:21:41;9.60;99.90
5578;DHT22;2811;51.900;10.734;2024-02-23T01:24:08;9.60;99.90
5578;DHT22;2811;51.900;10.734;2024-02-23T01:26:34;9.70;99.90
5578;DHT22;2811;51.900;10.734;2024-02-23T01:29:01;9.70;99.90
5578;DHT22;2811;51.900;10.734;2024-02-23T01:31:28;9.70;99.90
5578;DHT22;2811;51.900;10.734;2024-02-23T01:33:56;9.60;99.90
5578;DHT22;2811;51.900;10.734;2024-02-23T01:36:23;9.50;99.90
5578;DHT22;2811;51.900;10.734;2024-02-23T01:38:50;9.50;99.90
5578;DHT22;2811;51.900;10.734;2024-02-23T01:41:16;9.40;99.90
5578;DHT22;2811;51.900;10.734;2024-02-23T01:43:43;9.40;99.90
5578;DHT22;2811;51.900;10.734;2024-02-23T01:46:10;9.40;99.90
5578;DHT22;2811;51.900;10.734;2024-02-23T01:48:36;9.40;99.90
5578;DHT22;2811;51.900;10.734;2024-02-23T01:51:04;9.40;99.90
5578;DHT22;2811;51.900;10.734;2024-02-23T01:53:31;9.30;99.90
5578;DHT22;2811;51.900;10.734;2024-02-23T01:55:59;9.30;99.90
5578;DHT22;2811;51.900;10.734;2024-02-23T01:58:28;9.30;99.90
5578;DHT22;2811;51.900;10.734;2024-02-23T02:00:55;9.30;99.90
5578;DHT22;2811;51.900;10.734;2024-02-23T02:03:22;9.20;99.90
5578;DHT22;2811;51.900;10.734;2024-02-23T02:05:48;9.10;99.90
5578;DHT22;2811;51.900;10.734;2024-02-23T02:08:17;8.90;99.90
5578;DHT22;2811;51.900;10.734;2024-02-23T02:10:44;9.00;99.90
5578;DHT22;2811;51.900;10.734;2024-02-23T02:13:12;8.90;99.90
5578;DHT22;2811;51.900;10.734;2024-02-23T02:15:38;8.90;99.90
5578;DHT22;2811;51.900;10.734;2024-02-23T02:18:05;8.90;99.90
5578;DHT22;2811;51.900;10.734;2024-02-23T02:20:32;8.90;99.90
5578;DHT22;2811;51.900;10.734;2024-02-23T02:22:59;8.70;99.90
5578;DHT22;2811;51.900;10.734;2024-02-23T02:25:27;8.70;99.90
5578;DHT22;2811;51.900;10.734;2024-02-23T02:27:54;8.70;99.90
5578;DHT22;2811;51.900;10.734;2024-02-23T02:30:21;8.70;99.90
5578;DHT22;2811;51.900;10.734;2024-02-23T02:32:48;8.70;99.90
5578;DHT22;2811;51.900;10.734;2024-02-23T02:35:14;8.80;99.90
5578;DHT22;2811;51.900;10.734;2024-02-23T02:37:41;8.80;99.90
5578;DHT22;2811;51.900;10.734;2024-02-23T02:40:08;8.80;99.90
5578;DHT22;2811;51.900;10.734;2024-02-23T02:42:36;8.70;99.90
5578;DHT22;2811;51.900;10.734;2024-02-23T02:45:04;8.70;99.90
5578;DHT22;2811;51.900;10.734;2024-02-23T02:47:30;8.70;99.90
5578;DHT22;2811;51.900;10.734;2024-02-23T02:49:57;8.70;99.90
5578;DHT22;2811;51.900;10.734;2024-02-23T02:52:24;8.70;99.90
5578;DHT22;2811;51.900;10.734;2024-02-23T02:54:51;8.70;99.90
5578;DHT22;2811;51.900;10.734;2024-02-23T02:57:18;8.80;99.90
5578;DHT22;2811;51.900;10.734;2024-02-23T02:59:46;8.80;99.90
5578;DHT22;2811;51.900;10.734;2024-02-23T03:02:13;8.70;99.90
5578;DHT22;2811;51.900;10.734;2024-02-23T03:04:46;8.60;99.90
5578;DHT22;2811;51.900;10.734;2024-02-23T03:07:13;8.50;99.90
5578;DHT22;2811;51.900;10.734;2024-02-23T03:09:39;8.30;99.90
5578;DHT22;2811;51.900;10.734;2024-02-23T03:12:06;8.40;99.90
5578;DHT22;2811;51.900;10.734;2024-02-23T03:14:33;8.40;99.90
5578;DHT22;2811;51.900;10.734;2024-02-23T03:17:01;8.40;99.90
5578;DHT22;2811;51.900;10.734;2024-02-23T03:19:29;8.40;99.90
5578;DHT22;2811;51.900;10.734;2024-02-23T03:21:56;8.40;99.90
5578;DHT22;2811;51.900;10.734;2024-02-23T03:24:22;8.30;99.90
5578;DHT22;2811;51.900;10.734;2024-02-23T03:26:49;8.20;99.90
5578;DHT22;2811;51.900;10.734;2024-02-23T03:29:16;8.10;99.90
5578;DHT22;2811;51.900;10.734;2024-02-23T03:31:42;8.10;99.90
5578;DHT22;2811;51.900;10.734;2024-02-23T03:34:10;8.00;99.90
5578;DHT22;2811;51.900;10.734;2024-02-23T03:36:38;8.00;99.90
5578;DHT22;2811;51.900;10.734;2024-02-23T03:39:05;8.10;99.90
5578;DHT22;2811;51.900;10.734;2024-02-23T03:41:32;8.10;99.90
5578;DHT22;2811;51.900;10.734;2024-02-23T03:43:59;8.10;99.90
5578;DHT22;2811;51.900;10.734;2024-02-23T03:46:25;8.00;99.90
5578;DHT22;2811;51.900;10.734;2024-02-23T03:48:52;8.00;99.90
5578;DHT22;2811;51.900;10.734;2024-02-23T03:51:20;8.00;99.90
5578;DHT22;2811;51.900;10.734;2024-02-23T03:53:46;8.00;99.90
5578;DHT22;2811;51.900;10.734;2024-02-23T03:56:13;7.90;99.90
5578;DHT22;2811;51.900;10.734;2024-02-23T03:58:40;7.90;99.90
5578;DHT22;2811;51.900;10.734;2024-02-23T04:01:06;8.00;99.90
5578;DHT22;2811;51.900;10.734;2024-02-23T04:03:34;8.00;99.90
5578;DHT22;2811;51.900;10.734;2024-02-23T04:06:00;7.90;99.90
5578;DHT22;2811;51.900;10.734;2024-02-23T04:08:28;7.80;99.90
5578;DHT22;2811;51.900;10.734;2024-02-23T04:10:55;7.80;99.90
5578;DHT22;2811;51.900;10.734;2024-02-23T04:13:22;7.70;99.90
5578;DHT22;2811;51.900;10.734;2024-02-23T04:15:49;7.70;99.90
5578;DHT22;2811;51.900;10.734;2024-02-23T04:18:16;7.60;99.90
5578;DHT22;2811;51.900;10.734;2024-02-23T04:20:42;7.60;99.90
5578;DHT22;2811;51.900;10.734;2024-02-23T04:23:09;7.50;99.90
5578;DHT22;2811;51.900;10.734;2024-02-23T04:25:45;7.40;99.90
5578;DHT22;2811;51.900;10.734;2024-02-23T04:28:11;7.40;99.90
5578;DHT22;2811;51.900;10.734;2024-02-23T04:30:38;7.30;99.90
5578;DHT22;2811;51.900;10.734;2024-02-23T04:33:05;7.30;99.90
5578;DHT22;2811;51.900;10.734;2024-02-23T04:35:32;7.20;99.90
5578;DHT22;2811;51.900;10.734;2024-02-23T04:37:58;7.20;99.90
5578;DHT22;2811;51.900;10.734;2024-02-23T04:40:25;7.20;99.90
5578;DHT22;2811;51.900;10.734;2024-02-23T04:42:53;7.10;99.90
5578;DHT22;2811;51.900;10.734;2024-02-23T04:45:20;7.10;99.90
5578;DHT22;2811;51.900;10.734;2024-02-23T04:47:47;7.10;99.90
5578;DHT22;2811;51.900;10.734;2024-02-23T04:50:14;7.10;99.90
5578;DHT22;2811;51.900;10.734;2024-02-23T04:52:40;7.00;99.90
5578;DHT22;2811;51.900;10.734;2024-02-23T04:55:07;7.10;99.90
5578;DHT22;2811;51.900;10.734;2024-02-23T04:57:36;7.00;99.90
5578;DHT22;2811;51.900;10.734;2024-02-23T05:00:05;7.00;99.90
5578;DHT22;2811;51.900;10.734;2024-02-23T05:02:33;7.00;99.90
5578;DHT22;2811;51.900;10.734;2024-02-23T05:05:00;7.00;99.90
5578;DHT22;2811;51.900;10.734;2024-02-23T05:07:30;7.00;99.90
5578;DHT22;2811;51.900;10.734;2024-02-23T05:09:56;6.90;99.90
5578;DHT22;2811;51.900;10.734;2024-02-23T05:12:29;6.90;99.90
5578;DHT22;2811;51.900;10.734;2024-02-23T05:14:56;6.90;99.90
5578;DHT22;2811;51.900;10.734;2024-02-23T05:17:24;6.80;99.90
5578;DHT22;2811;51.900;10.734;2024-02-23T05:19:51;6.80;99.90
5578;DHT22;2811;51.900;10.734;2024-02-23T05:22:18;6.80;99.90
5578;DHT22;2811;51.900;10.734;2024-02-23T05:24:45;6.70;99.90
5578;DHT22;2811;51.900;10.734;2024-02-23T05:27:12;6.80;99.90
5578;DHT22;2811;51.900;10.734;2024-02-23T05:29:39;6.80;99.90
5578;DHT22;2811;51.900;10.734;2024-02-23T05:32:06;6.70;99.90
5578;DHT22;2811;51.900;10.734;2024-02-23T05:34:34;6.70;99.90
5578;DHT22;2811;51.900;10.734;2024-02-23T05:37:01;6.80;99.90
5578;DHT22;2811;51.900;10.734;2024-02-23T05:39:28;6.80;99.90
5578;DHT22;2811;51.900;10.734;2024-02-23T05:41:55;6.70;99.90
5578;DHT22;2811;51.900;10.734;2024-02-23T05:44:22;6.60;99.90
5578;DHT22;2811;51.900;10.734;2024-02-23T05:46:58;6.70;99.90
5578;DHT22;2811;51.900;10.734;2024-02-23T05:49:25;6.60;99.90
5578;DHT22;2811;51.900;10.734;2024-02-23T05:51:53;6.60;99.90
5578;DHT22;2811;51.900;10.734;2024-02-23T05:54:20;6.60;99.90
5578;DHT22;2811;51.900;10.734;2024-02-23T05:56:47;6.60;99.90
5578;DHT22;2811;51.900;10.734;2024-02-23T05:59:14;6.60;99.90
5578;DHT22;2811;51.900;10.734;2024-02-23T06:01:41;6.60;99.90
5578;DHT22;2811;51.900;10.734;2024-02-23T06:04:07;6.60;99.90
5578;DHT22;2811;51.900;10.734;2024-02-23T06:06:34;6.60;99.90
5578;DHT22;2811;51.900;10.734;2024-02-23T06:09:02;6.60;99.90
5578;DHT22;2811;51.900;10.734;2024-02-23T06:11:31;6.60;99.90
5578;DHT22;2811;51.900;10.734;2024-02-23T06:13:57;6.60;99.90
5578;DHT22;2811;51.900;10.734;2024-02-23T06:16:24;6.60;99.90
5578;DHT22;2811;51.900;10.734;2024-02-23T06:18:51;6.50;99.90
5578;DHT22;2811;51.900;10.734;2024-02-23T06:21:18;6.60;99.90
5578;DHT22;2811;51.900;10.734;2024-02-23T06:23:45;6.60;99.90
5578;DHT22;2811;51.900;10.734;2024-02-23T06:26:13;6.50;99.90
5578;DHT22;2811;51.900;10.734;2024-02-23T06:28:40;6.60;99.90
5578;DHT22;2811;51.900;10.734;2024-02-23T06:31:08;6.50;99.90
5578;DHT22;2811;51.900;10.734;2024-02-23T06:33:35;6.50;99.90
5578;DHT22;2811;51.900;10.734;2024-02-23T06:36:02;6.60;99.90
5578;DHT22;2811;51.900;10.734;2024-02-23T06:38:29;6.60;99.90
5578;DHT22;2811;51.900;10.734;2024-02-23T06:40:56;6.50;99.90
5578;DHT22;2811;51.900;10.734;2024-02-23T06:43:24;6.50;99.90
5578;DHT22;2811;51.900;10.734;2024-02-23T06:45:51;6.50;99.90
5578;DHT22;2811;51.900;10.734;2024-02-23T06:48:18;6.50;99.90
5578;DHT22;2811;51.900;10.734;2024-02-23T06:50:45;6.50;99.90
5578;DHT22;2811;51.900;10.734;2024-02-23T06:53:12;6.50;99.90
5578;DHT22;2811;51.900;10.734;2024-02-23T06:55:39;6.50;99.90
5578;DHT22;2811;51.900;10.734;2024-02-23T06:58:05;6.50;99.90
5578;DHT22;2811;51.900;10.734;2024-02-23T07:00:34;6.50;99.90
5578;DHT22;2811;51.900;10.734;2024-02-23T07:03:01;6.50;99.90
5578;DHT22;2811;51.900;10.734;2024-02-23T07:05:29;6.70;99.90
5578;DHT22;2811;51.900;10.734;2024-02-23T07:07:56;6.70;99.90
5578;DHT22;2811;51.900;10.734;2024-02-23T07:10:22;6.80;99.90
5578;DHT22;2811;51.900;10.734;2024-02-23T07:12:51;6.80;99.90
5578;DHT22;2811;51.900;10.734;2024-02-23T07:15:19;6.90;99.90
5578;DHT22;2811;51.900;10.734;2024-02-23T07:17:47;7.00;99.90
5578;DHT22;2811;51.900;10.734;2024-02-23T07:20:14;7.10;99.90
5578;DHT22;2811;51.900;10.734;2024-02-23T07:22:44;7.20;99.90
5578;DHT22;2811;51.900;10.734;2024-02-23T07:25:11;7.30;99.90
5578;DHT22;2811;51.900;10.734;2024-02-23T07:27:38;7.50;99.90
5578;DHT22;2811;51.900;10.734;2024-02-23T07:30:06;7.60;99.90
5578;DHT22;2811;51.900;10.734;2024-02-23T07:32:33;7.60;99.90
5578;DHT22;2811;51.900;10.734;2024-02-23T07:35:00;7.60;99.90
5578;DHT22;2811;51.900;10.734;2024-02-23T07:37:29;7.50;99.90
5578;DHT22;2811;51.900;10.734;2024-02-23T07:39:56;7.50;99.90
5578;DHT22;2811;51.900;10.734;2024-02-23T07:42:23;7.50;99.90
5578;DHT22;2811;51.900;10.734;2024-02-23T07:44:49;7.50;99.90
5578;DHT22;2811;51.900;10.734;2024-02-23T07:47:16;7.50;99.90
5578;DHT22;2811;51.900;10.734;2024-02-23T07:49:43;7.40;99.90
5578;DHT22;2811;51.900;10.734;2024-02-23T07:52:11;7.30;99.90
5578;DHT22;2811;51.900;10.734;2024-02-23T07:54:37;7.30;99.90
5578;DHT22;2811;51.900;10.734;2024-02-23T07:57:04;7.20;99.90
5578;DHT22;2811;51.900;10.734;2024-02-23T07:59:31;7.10;99.90
5578;DHT22;2811;51.900;10.734;2024-02-23T08:01:58;7.00;99.90
5578;DHT22;2811;51.900;10.734;2024-02-23T08:04:25;7.10;99.90
5578;DHT22;2811;51.900;10.734;2024-02-23T08:06:52;7.10;99.90
5578;DHT22;2811;51.900;10.734;2024-02-23T08:09:19;7.10;99.90
5578;DHT22;2811;51.900;10.734;2024-02-23T08:11:47;7.10;99.90
5578;DHT22;2811;51.900;10.734;2024-02-23T08:14:14;7.30;99.90
5578;DHT22;2811;51.900;10.734;2024-02-23T08:16:41;7.40;99.90
5578;DHT22;2811;51.900;10.734;2024-02-23T08:19:08;7.40;99.90
5578;DHT22;2811;51.900;10.734;2024-02-23T08:21:34;7.40;99.90
5578;DHT22;2811;51.900;10.734;2024-02-23T08:24:01;7.50;99.90
5578;DHT22;2811;51.900;10.734;2024-02-23T08:26:30;7.40;99.90
5578;DHT22;2811;51.900;10.734;2024-02-23T08:28:57;7.50;99.90
5578;DHT22;2811;51.900;10.734;2024-02-23T08:31:24;7.60;99.90
5578;DHT22;2811;51.900;10.734;2024-02-23T08:33:51;7.40;99.90
5578;DHT22;2811;51.900;10.734;2024-02-23T08:36:18;7.40;99.90
5578;DHT22;2811;51.900;10.734;2024-02-23T08:38:45;7.40;99.90
5578;DHT22;2811;51.900;10.734;2024-02-23T08:41:11;7.30;99.90
5578;DHT22;2811;51.900;10.734;2024-02-23T08:43:39;7.50;99.90
5578;DHT22;2811;51.900;10.734;2024-02-23T08:46:06;7.50;99.90
5578;DHT22;2811;51.900;10.734;2024-02-23T08:48:33;7.50;99.90
5578;DHT22;2811;51.900;10.734;2024-02-23T08:51:00;7.50;99.90
5578;DHT22;2811;51.900;10.734;2024-02-23T08:53:27;7.60;99.90
5578;DHT22;2811;51.900;10.734;2024-02-23T08:55:53;7.80;99.90
5578;DHT22;2811;51.900;10.734;2024-02-23T08:58:20;7.90;99.90
5578;DHT22;2811;51.900;10.734;2024-02-23T09:00:48;7.80;99.90
5578;DHT22;2811;51.900;10.734;2024-02-23T09:03:15;7.80;99.90
5578;DHT22;2811;51.900;10.734;2024-02-23T09:05:41;7.80;99.90
5578;DHT22;2811;51.900;10.734;2024-02-23T09:08:09;8.00;99.90
5578;DHT22;2811;51.900;10.734;2024-02-23T09:10:36;7.80;99.90
5578;DHT22;2811;51.900;10.734;2024-02-23T09:13:03;7.90;99.90
5578;DHT22;2811;51.900;10.734;2024-02-23T09:15:30;7.90;99.90
5578;DHT22;2811;51.900;10.734;2024-02-23T09:17:57;8.00;99.90
5578;DHT22;2811;51.900;10.734;2024-02-23T09:20:24;8.10;99.90
5578;DHT22;2811;51.900;10.734;2024-02-23T09:22:51;8.20;99.90
5578;DHT22;2811;51.900;10.734;2024-02-23T09:25:18;8.50;99.90
5578;DHT22;2811;51.900;10.734;2024-02-23T09:27:45;8.70;99.90
5578;DHT22;2811;51.900;10.734;2024-02-23T09:30:14;8.70;99.90
5578;DHT22;2811;51.900;10.734;2024-02-23T09:32:41;8.50;99.90
5578;DHT22;2811;51.900;10.734;2024-02-23T09:35:09;8.70;99.90
5578;DHT22;2811;51.900;10.734;2024-02-23T09:37:36;9.10;99.90
5578;DHT22;2811;51.900;10.734;2024-02-23T09:40:03;9.10;99.90
5578;DHT22;2811;51.900;10.734;2024-02-23T09:42:30;9.30;99.90
5578;DHT22;2811;51.900;10.734;2024-02-23T09:44:59;9.40;99.90
5578;DHT22;2811;51.900;10.734;2024-02-23T09:47:27;9.40;99.90
5578;DHT22;2811;51.900;10.734;2024-02-23T09:49:55;9.80;99.90
5578;DHT22;2811;51.900;10.734;2024-02-23T09:52:23;9.90;99.90
5578;DHT22;2811;51.900;10.734;2024-02-23T09:54:49;10.20;99.90
5578;DHT22;2811;51.900;10.734;2024-02-23T09:57:16;10.50;99.80
5578;DHT22;2811;51.900;10.734;2024-02-23T09:59:44;10.30;99.00
5578;DHT22;2811;51.900;10.734;2024-02-23T10:02:15;10.60;99.10
5578;DHT22;2811;51.900;10.734;2024-02-23T10:04:42;10.50;99.30
5578;DHT22;2811;51.900;10.734;2024-02-23T10:07:10;10.20;99.10
5578;DHT22;2811;51.900;10.734;2024-02-23T10:09:38;10.10;99.00
5578;DHT22;2811;51.900;10.734;2024-02-23T10:12:06;10.10;99.90
5578;DHT22;2811;51.900;10.734;2024-02-23T10:14:33;10.60;99.90
5578;DHT22;2811;51.900;10.734;2024-02-23T10:17:00;10.80;98.70
5578;DHT22;2811;51.900;10.734;2024-02-23T10:19:27;10.90;98.50
5578;DHT22;2811;51.900;10.734;2024-02-23T10:21:55;10.40;99.10
5578;DHT22;2811;51.900;10.734;2024-02-23T10:24:23;10.40;99.20
5578;DHT22;2811;51.900;10.734;2024-02-23T10:26:52;10.50;98.50
5578;DHT22;2811;51.900;10.734;2024-02-23T10:29:19;10.40;99.40
5578;DHT22;2811;51.900;10.734;2024-02-23T10:31:47;10.40;99.00
5578;DHT22;2811;51.900;10.734;2024-02-23T10:34:18;10.60;98.60
5578;DHT22;2811;51.900;10.734;2024-02-23T10:36:45;10.60;99.20
5578;DHT22;2811;51.900;10.734;2024-02-23T10:39:15;10.80;98.90
5578;DHT22;2811;51.900;10.734;2024-02-23T10:41:46;10.40;99.10
5578;DHT22;2811;51.900;10.734;2024-02-23T10:44:16;10.40;99.10
5578;DHT22;2811;51.900;10.734;2024-02-23T10:46:43;10.70;99.30
5578;DHT22;2811;51.900;10.734;2024-02-23T10:49:11;11.00;99.00
5578;DHT22;2811;51.900;10.734;2024-02-23T10:51:39;11.00;98.30
5578;DHT22;2811;51.900;10.734;2024-02-23T10:54:06;11.10;98.90
5578;DHT22;2811;51.900;10.734;2024-02-23T10:56:33;11.20;97.20
5578;DHT22;2811;51.900;10.734;2024-02-23T10:59:00;11.30;97.20
5578;DHT22;2811;51.900;10.734;2024-02-23T11:01:28;11.70;97.60
5578;DHT22;2811;51.900;10.734;2024-02-23T11:03:55;12.00;96.70
5578;DHT22;2811;51.900;10.734;2024-02-23T11:06:27;12.10;97.40
5578;DHT22;2811;51.900;10.734;2024-02-23T11:09:04;12.20;96.90
5578;DHT22;2811;51.900;10.734;2024-02-23T11:11:32;12.30;94.70
5578;DHT22;2811;51.900;10.734;2024-02-23T11:14:02;12.20;95.10
5578;DHT22;2811;51.900;10.734;2024-02-23T11:16:32;11.90;95.80
5578;DHT22;2811;51.900;10.734;2024-02-23T11:19:06;11.80;95.60
5578;DHT22;2811;51.900;10.734;2024-02-23T11:21:34;11.70;95.20
5578;DHT22;2811;51.900;10.734;2024-02-23T11:24:03;11.40;96.00
5578;DHT22;2811;51.900;10.734;2024-02-23T11:26:30;11.10;97.40
5578;DHT22;2811;51.900;10.734;2024-02-23T11:28:58;11.00;96.90
5578;DHT22;2811;51.900;10.734;2024-02-23T11:31:31;10.70;98.70
5578;DHT22;2811;51.900;10.734;2024-02-23T11:33:58;10.50;99.00
5578;DHT22;2811;51.900;10.734;2024-02-23T11:36:28;10.50;99.40
5578;DHT22;2811;51.900;10.734;2024-02-23T11:38:56;10.50;99.10
5578;DHT22;2811;51.900;10.734;2024-02-23T11:41:24;10.40;99.30
5578;DHT22;2811;51.900;10.734;2024-02-23T11:43:51;10.50;99.00
5578;DHT22;2811;51.900;10.734;2024-02-23T11:46:18;10.30;97.40
5578;DHT22;2811;51.900;10.734;2024-02-23T11:48:47;10.30;97.30
5578;DHT22;2811;51.900;10.734;2024-02-23T11:51:19;10.50;97.20
5578;DHT22;2811;51.900;10.734;2024-02-23T11:53:47;10.70;97.30
5578;DHT22;2811;51.900;10.734;2024-02-23T11:56:14;10.70;97.40
5578;DHT22;2811;51.900;10.734;2024-02-23T11:58:40;10.60;97.30
5578;DHT22;2811;51.900;10.734;2024-02-23T12:01:07;10.40;96.20
5578;DHT22;2811;51.900;10.734;2024-02-23T12:03:34;10.40;96.90
5578;DHT22;2811;51.900;10.734;2024-02-23T12:06:05;10.10;96.10
5578;DHT22;2811;51.900;10.734;2024-02-23T12:08:33;10.20;96.30
5578;DHT22;2811;51.900;10.734;2024-02-23T12:11:04;10.00;96.10
5578;DHT22;2811;51.900;10.734;2024-02-23T12:13:31;9.80;97.20
5578;DHT22;2811;51.900;10.734;2024-02-23T12:15:58;9.80;98.80
5578;DHT22;2811;51.900;10.734;2024-02-23T12:18:26;10.00;97.00
5578;DHT22;2811;51.900;10.734;2024-02-23T12:20:59;10.30;97.40
5578;DHT22;2811;51.900;10.734;2024-02-23T12:23:27;10.30;96.80
5578;DHT22;2811;51.900;10.734;2024-02-23T12:25:54;10.40;97.30
5578;DHT22;2811;51.900;10.734;2024-02-23T12:28:22;10.30;96.80
5578;DHT22;2811;51.900;10.734;2024-02-23T12:30:58;10.20;96.90
5578;DHT22;2811;51.900;10.734;2024-02-23T12:33:27;10.10;96.70
5578;DHT22;2811;51.900;10.734;2024-02-23T12:35:54;10.10;97.10
5578;DHT22;2811;51.900;10.734;2024-02-23T12:38:21;10.20;97.30
5578;DHT22;2811;51.900;10.734;2024-02-23T12:40:50;10.20;96.80
5578;DHT22;2811;51.900;10.734;2024-02-23T12:43:17;10.30;97.00
5578;DHT22;2811;51.900;10.734;2024-02-23T12:45:46;10.10;97.20
5578;DHT22;2811;51.900;10.734;2024-02-23T12:48:14;10.20;97.10
5578;DHT22;2811;51.900;10.734;2024-02-23T12:50:41;10.10;97.50
5578;DHT22;2811;51.900;10.734;2024-02-23T12:53:08;9.90;97.80
5578;DHT22;2811;51.900;10.734;2024-02-23T12:55:35;9.70;97.90
5578;DHT22;2811;51.900;10.734;2024-02-23T12:58:04;10.00;97.90
5578;DHT22;2811;51.900;10.734;2024-02-23T13:00:30;10.10;97.00
5578;DHT22;2811;51.900;10.734;2024-02-23T13:02:57;9.90;97.60
5578;DHT22;2811;51.900;10.734;2024-02-23T13:05:24;9.90;97.90
5578;DHT22;2811;51.900;10.734;2024-02-23T13:07:50;10.00;97.40
5578;DHT22;2811;51.900;10.734;2024-02-23T13:10:17;10.10;97.10
5578;DHT22;2811;51.900;10.734;2024-02-23T13:12:45;10.20;97.50
5578;DHT22;2811;51.900;10.734;2024-02-23T13:15:13;9.90;96.50
5578;DHT22;2811;51.900;10.734;2024-02-23T13:17:41;9.70;97.00
5578;DHT22;2811;51.900;10.734;2024-02-23T13:20:07;9.70;98.60
5578;DHT22;2811;51.900;10.734;2024-02-23T13:22:36;9.80;98.20
5578;DHT22;2811;51.900;10.734;2024-02-23T13:25:03;9.90;97.00
5578;DHT22;2811;51.900;10.734;2024-02-23T13:27:30;9.60;96.70
5578;DHT22;2811;51.900;10.734;2024-02-23T13:29:56;9.60;97.10
5578;DHT22;2811;51.900;10.734;2024-02-23T13:32:24;9.80;97.90
5578;DHT22;2811;51.900;10.734;2024-02-23T13:34:51;9.80;97.60
5578;DHT22;2811;51.900;10.734;2024-02-23T13:37:18;9.80;98.30
5578;DHT22;2811;51.900;10.734;2024-02-23T13:39:45;10.00;97.10
5578;DHT22;2811;51.900;10.734;2024-02-23T13:42:11;10.00;96.90
5578;DHT22;2811;51.900;10.734;2024-02-23T13:44:38;10.00;96.80
5578;DHT22;2811;51.900;10.734;2024-02-23T13:47:05;9.90;97.20
5578;DHT22;2811;51.900;10.734;2024-02-23T13:49:33;9.70;97.00
5578;DHT22;2811;51.900;10.734;2024-02-23T13:52:00;9.60;98.00
5578;DHT22;2811;51.900;10.734;2024-02-23T13:54:27;9.70;98.30
5578;DHT22;2811;51.900;10.734;2024-02-23T13:56:53;9.80;98.90
5578;DHT22;2811;51.900;10.734;2024-02-23T13:59:20;9.70;99.10
5578;DHT22;2811;51.900;10.734;2024-02-23T14:01:47;9.80;98.40
5578;DHT22;2811;51.900;10.734;2024-02-23T14:04:13;9.80;98.10
5578;DHT22;2811;51.900;10.734;2024-02-23T14:06:41;9.80;98.50
5578;DHT22;2811;51.900;10.734;2024-02-23T14:09:08;10.00;98.50
5578;DHT22;2811;51.900;10.734;2024-02-23T14:11:35;10.20;98.70
5578;DHT22;2811;51.900;10.734;2024-02-23T14:14:02;10.40;97.90
5578;DHT22;2811;51.900;10.734;2024-02-23T14:16:29;10.00;97.10
5578;DHT22;2811;51.900;10.734;2024-02-23T14:18:56;9.90;98.40
5578;DHT22;2811;51.900;10.734;2024-02-23T14:21:22;10.10;97.80
5578;DHT22;2811;51.900;10.734;2024-02-23T14:23:52;10.30;98.00
5578;DHT22;2811;51.900;10.734;2024-02-23T14:26:18;10.40;98.20
5578;DHT22;2811;51.900;10.734;2024-02-23T14:28:45;10.60;98.80
5578;DHT22;2811;51.900;10.734;2024-02-23T14:31:12;10.50;97.20
5578;DHT22;2811;51.900;10.734;2024-02-23T14:33:38;10.30;98.10
5578;DHT22;2811;51.900;10.734;2024-02-23T14:36:06;10.20;98.80
5578;DHT22;2811;51.900;10.734;2024-02-23T14:38:33;10.20;98.30
5578;DHT22;2811;51.900;10.734;2024-02-23T14:41:01;10.10;99.40
5578;DHT22;2811;51.900;10.734;2024-02-23T14:43:28;9.80;99.60
5578;DHT22;2811;51.900;10.734;2024-02-23T14:45:56;9.80;99.90
5578;DHT22;2811;51.900;10.734;2024-02-23T14:48:23;9.60;99.90
5578;DHT22;2811;51.900;10.734;2024-02-23T14:50:50;9.60;99.90
5578;DHT22;2811;51.900;10.734;2024-02-23T14:53:17;9.80;99.90
5578;DHT22;2811;51.900;10.734;2024-02-23T14:55:43;9.40;99.90
5578;DHT22;2811;51.900;10.734;2024-02-23T14:58:11;9.50;99.90
5578;DHT22;2811;51.900;10.734;2024-02-23T15:00:38;9.70;99.90
5578;DHT22;2811;51.900;10.734;2024-02-23T15:03:05;9.70;99.90
5578;DHT22;2811;51.900;10.734;2024-02-23T15:05:34;9.70;99.90
5578;DHT22;2811;51.900;10.734;2024-02-23T15:08:01;9.70;99.90
5578;DHT22;2811;51.900;10.734;2024-02-23T15:10:27;10.00;99.60
5578;DHT22;2811;51.900;10.734;2024-02-23T15:12:54;9.70;99.90
5578;DHT22;2811;51.900;10.734;2024-02-23T15:15:22;9.80;99.90
5578;DHT22;2811;51.900;10.734;2024-02-23T15:17:49;9.80;99.40
5578;DHT22;2811;51.900;10.734;2024-02-23T15:20:17;9.90;99.60
5578;DHT22;2811;51.900;10.734;2024-02-23T15:22:44;9.70;98.80
5578;DHT22;2811;51.900;10.734;2024-02-23T15:25:12;9.60;99.90
5578;DHT22;2811;51.900;10.734;2024-02-23T15:27:39;9.50;99.90
5578;DHT22;2811;51.900;10.734;2024-02-23T15:30:06;9.50;99.10
5578;DHT22;2811;51.900;10.734;2024-02-23T15:32:36;9.30;98.60
5578;DHT22;2811;51.900;10.734;2024-02-23T15:35:04;9.20;99.10
5578;DHT22;2811;51.900;10.734;2024-02-23T15:37:31;9.10;99.50
5578;DHT22;2811;51.900;10.734;2024-02-23T15:39:57;9.10;99.80
5578;DHT22;2811;51.900;10.734;2024-02-23T15:42:24;9.30;99.70
5578;DHT22;2811;51.900;10.734;2024-02-23T15:44:51;9.50;99.00
5578;DHT22;2811;51.900;10.734;2024-02-23T15:47:17;9.50;98.80
5578;DHT22;2811;51.900;10.734;2024-02-23T15:49:45;9.70;99.00
5578;DHT22;2811;51.900;10.734;2024-02-23T15:52:12;9.80;99.50
5578;DHT22;2811;51.900;10.734;2024-02-23T15:54:39;9.70;99.50
5578;DHT22;2811;51.900;10.734;2024-02-23T15:57:05;9.70;98.90